createdAt,value
2022-11-15T05:31:41.286Z,0.00
2022-11-15T05:32:41.256Z,0.00
2022-11-15T05:33:41.266Z,0.00
2022-11-15T05:34:41.235Z,0.00
2022-11-15T05:35:41.225Z,0.00
2022-11-15T05:36:41.214Z,0.00
2022-11-15T05:37:41.204Z,0.00
2022-11-15T05:38:41.202Z,0.00
2022-11-15T05:39:41.180Z,0.00
2022-11-15T05:40:41.162Z,0.00
2022-11-15T05:41:41.155Z,0.00
2022-11-15T05:42:41.138Z,0.00
2022-11-15T05:43:41.142Z,0.00
2022-11-15T05:44:41.113Z,0.00
2022-11-15T05:45:41.111Z,0.00
2022-11-15T05:46:41.116Z,0.00
2022-11-15T05:47:41.085Z,0.00
2022-11-15T05:48:41.076Z,0.00
2022-11-15T05:49:41.060Z,0.00
2022-11-15T05:50:41.052Z,0.00
2022-11-15T05:51:41.032Z,0.00
2022-11-15T05:52:41.012Z,0.00
2022-11-15T05:53:41.024Z,0.00
2022-11-15T05:54:40.980Z,0.00
2022-11-15T05:55:40.991Z,0.00
2022-11-15T05:56:40.951Z,0.00
2022-11-15T05:57:40.949Z,0.00
2022-11-15T05:58:40.942Z,0.00
2022-11-15T05:59:40.928Z,0.00
2022-11-15T06:00:40.901Z,0.00
2022-11-15T06:01:40.940Z,0.00
2022-11-15T06:02:40.877Z,0.00
2022-11-15T06:03:40.889Z,0.00
2022-11-15T06:04:40.881Z,0.00
2022-11-15T06:05:40.850Z,0.00
2022-11-15T06:06:40.817Z,0.00
2022-11-15T06:07:40.808Z,0.00
2022-11-15T06:08:40.850Z,0.00
2022-11-15T06:09:40.787Z,0.00
2022-11-15T06:10:40.802Z,0.00
2022-11-15T06:11:40.759Z,0.00
2022-11-15T06:12:40.748Z,0.00
2022-11-15T06:13:40.738Z,0.00
2022-11-15T06:14:40.748Z,0.00
2022-11-15T06:15:40.718Z,0.00
2022-11-15T06:16:40.725Z,0.00
2022-11-15T06:17:40.683Z,0.00
2022-11-15T06:18:40.682Z,5.62
2022-11-15T06:19:40.677Z,5.62
2022-11-15T06:20:40.647Z,5.62
2022-11-15T06:21:40.629Z,5.62
2022-11-15T06:22:40.607Z,5.62
2022-11-15T06:23:40.624Z,5.62
2022-11-15T06:24:40.613Z,5.62
2022-11-15T06:25:40.577Z,5.62
2022-11-15T06:26:40.556Z,5.62
2022-11-15T06:27:40.544Z,11.25
2022-11-15T06:28:40.558Z,11.25
2022-11-15T06:29:40.564Z,11.25
2022-11-15T06:30:40.525Z,11.25
2022-11-15T06:31:40.498Z,11.25
2022-11-15T06:32:40.472Z,11.25
2022-11-15T06:33:40.464Z,11.25
2022-11-15T06:34:40.467Z,16.88
2022-11-15T06:35:40.440Z,16.88
2022-11-15T06:36:40.437Z,16.88
2022-11-15T06:37:40.471Z,16.88
2022-11-15T06:38:40.402Z,16.88
2022-11-15T06:39:40.392Z,22.50
2022-11-15T06:40:40.385Z,22.50
2022-11-15T06:41:40.372Z,22.50
2022-11-15T06:42:40.384Z,22.50
2022-11-15T06:43:40.353Z,28.12
2022-11-15T06:44:40.372Z,28.12
2022-11-15T06:45:40.305Z,28.12
2022-11-15T06:46:40.302Z,28.12
2022-11-15T06:47:40.300Z,28.12
2022-11-15T06:48:40.280Z,33.75
2022-11-15T06:49:40.311Z,33.75
2022-11-15T06:50:40.261Z,33.75
2022-11-15T06:51:40.234Z,33.75
2022-11-15T06:52:40.252Z,39.38
2022-11-15T06:53:40.201Z,39.38
2022-11-15T06:54:40.211Z,39.38
2022-11-15T06:55:40.182Z,39.38
2022-11-15T06:56:40.181Z,45.00
2022-11-15T06:57:40.167Z,45.00
2022-11-15T06:58:40.144Z,45.00
2022-11-15T06:59:40.816Z,45.00
2022-11-15T07:00:40.122Z,50.62
2022-11-15T07:01:40.142Z,50.62
2022-11-15T07:02:40.103Z,50.62
2022-11-15T07:03:40.100Z,50.62
2022-11-15T07:04:40.090Z,56.25
2022-11-15T07:05:40.039Z,56.25
2022-11-15T07:06:40.056Z,56.25
2022-11-15T07:07:40.068Z,61.88
2022-11-15T07:08:40.034Z,67.50
2022-11-15T07:09:40.012Z,73.12
2022-11-15T07:10:39.999Z,73.12
2022-11-15T07:11:40.025Z,67.50
2022-11-15T07:12:39.968Z,67.50
2022-11-15T07:13:39.947Z,84.38
2022-11-15T07:14:40.038Z,90.00
2022-11-15T07:15:39.947Z,73.12
2022-11-15T07:16:39.909Z,73.12
2022-11-15T07:17:39.893Z,73.12
2022-11-15T07:18:39.881Z,78.75
2022-11-15T07:19:39.883Z,90.00
2022-11-15T07:20:39.858Z,95.62
2022-11-15T07:21:39.877Z,90.00
2022-11-15T07:22:39.863Z,95.62
2022-11-15T07:23:39.834Z,101.25
2022-11-15T07:24:39.836Z,112.50
2022-11-15T07:25:39.785Z,118.12
2022-11-15T07:26:39.783Z,112.50
2022-11-15T07:27:39.774Z,146.25
2022-11-15T07:28:39.756Z,281.25
2022-11-15T07:29:39.758Z,303.75
2022-11-15T07:30:44.076Z,174.38
2022-11-15T07:31:40.725Z,247.50
2022-11-15T07:32:39.716Z,241.88
2022-11-15T07:33:39.706Z,140.62
2022-11-15T07:34:39.684Z,118.12
2022-11-15T07:35:39.667Z,213.75
2022-11-15T07:36:39.657Z,405.00
2022-11-15T07:37:39.634Z,421.88
2022-11-15T07:38:43.072Z,292.50
2022-11-15T07:39:39.634Z,405.00
2022-11-15T07:40:39.593Z,568.12
2022-11-15T07:41:39.580Z,455.62
2022-11-15T07:42:39.571Z,331.88
2022-11-15T07:43:39.553Z,444.38
2022-11-15T07:44:39.559Z,393.75
2022-11-15T07:45:39.529Z,219.38
2022-11-15T07:46:39.520Z,163.12
2022-11-15T07:47:39.542Z,174.38
2022-11-15T07:48:44.581Z,196.88
2022-11-15T07:49:40.502Z,140.62
2022-11-15T07:50:39.459Z,112.50
2022-11-15T07:51:39.450Z,129.38
2022-11-15T07:52:39.455Z,140.62
2022-11-15T07:53:39.432Z,146.25
2022-11-15T07:54:39.429Z,151.88
2022-11-15T07:55:39.399Z,135.00
2022-11-15T07:56:39.389Z,118.12
2022-11-15T07:57:39.372Z,118.12
2022-11-15T07:58:39.361Z,146.25
2022-11-15T07:59:39.358Z,213.75
2022-11-15T08:00:39.328Z,236.25
2022-11-15T08:01:39.455Z,303.75
2022-11-15T08:02:39.413Z,371.25
2022-11-15T08:03:39.290Z,292.50
2022-11-15T08:04:39.287Z,196.88
2022-11-15T08:05:39.261Z,309.38
2022-11-15T08:06:39.247Z,421.88
2022-11-15T08:07:39.237Z,382.50
2022-11-15T08:08:39.219Z,753.75
2022-11-15T08:09:39.248Z,1164.38
2022-11-15T08:10:40.767Z,883.12
2022-11-15T08:11:39.178Z,669.38
2022-11-15T08:12:39.220Z,883.12
2022-11-15T08:13:39.161Z,1181.25
2022-11-15T08:14:39.158Z,1046.25
2022-11-15T08:15:39.128Z,725.62
2022-11-15T08:16:39.130Z,855.00
2022-11-15T08:17:39.108Z,675.00
2022-11-15T08:18:39.118Z,483.75
2022-11-15T08:19:39.077Z,438.75
2022-11-15T08:20:39.068Z,298.12
2022-11-15T08:21:39.050Z,641.25
2022-11-15T08:22:39.046Z,1119.38
2022-11-15T08:23:39.061Z,815.62
2022-11-15T08:24:39.040Z,444.38
2022-11-15T08:25:38.991Z,360.00
2022-11-15T08:26:38.980Z,337.50
2022-11-15T08:27:39.011Z,466.88
2022-11-15T08:28:38.967Z,646.88
2022-11-15T08:29:38.988Z,472.50
2022-11-15T08:30:38.939Z,298.12
2022-11-15T08:31:38.908Z,365.62
2022-11-15T08:32:38.910Z,326.25
2022-11-15T08:33:38.898Z,382.50
2022-11-15T08:34:38.926Z,421.88
2022-11-15T08:35:38.858Z,511.88
2022-11-15T08:36:45.636Z,731.25
2022-11-15T08:37:39.873Z,590.62
2022-11-15T08:38:38.848Z,832.50
2022-11-15T08:39:38.827Z,866.25
2022-11-15T08:40:38.802Z,545.62
2022-11-15T08:41:38.783Z,483.75
2022-11-15T08:42:38.776Z,427.50
2022-11-15T08:43:38.759Z,360.00
2022-11-15T08:44:38.761Z,410.62
2022-11-15T08:45:38.729Z,303.75
2022-11-15T08:46:38.732Z,315.00
2022-11-15T08:47:38.702Z,590.62
2022-11-15T08:48:38.721Z,562.50
2022-11-15T08:49:38.705Z,540.00
2022-11-15T08:50:38.687Z,371.25
2022-11-15T08:51:38.659Z,450.00
2022-11-15T08:52:38.965Z,483.75
2022-11-15T08:53:38.618Z,601.88
2022-11-15T08:54:38.637Z,815.62
2022-11-15T08:55:38.591Z,776.25
2022-11-15T08:56:38.585Z,652.50
2022-11-15T08:57:38.578Z,405.00
2022-11-15T08:58:38.556Z,461.25
2022-11-15T08:59:38.565Z,573.75
2022-11-15T09:00:38.527Z,675.00
2022-11-15T09:01:38.569Z,641.25
2022-11-15T09:02:38.520Z,596.25
2022-11-15T09:03:38.486Z,646.88
2022-11-15T09:04:38.498Z,489.38
2022-11-15T09:05:38.463Z,607.50
2022-11-15T09:06:42.985Z,601.88
2022-11-15T09:07:38.428Z,871.88
2022-11-15T09:08:47.403Z,708.75
2022-11-15T09:09:39.420Z,1006.88
2022-11-15T09:10:38.429Z,1153.12
2022-11-15T09:11:38.417Z,1344.38
2022-11-15T09:12:38.367Z,1406.25
2022-11-15T09:13:38.380Z,1518.75
2022-11-15T09:14:38.358Z,1507.50
2022-11-15T09:15:38.328Z,1153.12
2022-11-15T09:16:38.329Z,1153.12
2022-11-15T09:17:38.306Z,1237.50
2022-11-15T09:18:38.354Z,1434.38
2022-11-15T09:19:38.284Z,1524.38
2022-11-15T09:20:38.261Z,1411.88
2022-11-15T09:21:38.248Z,1108.12
2022-11-15T09:22:38.237Z,1080.00
2022-11-15T09:23:38.249Z,1276.88
2022-11-15T09:24:38.221Z,1321.88
2022-11-15T09:25:38.240Z,1293.75
2022-11-15T09:26:38.193Z,1170.00
2022-11-15T09:27:38.176Z,1181.25
2022-11-15T09:28:38.172Z,1305.00
2022-11-15T09:29:38.148Z,1473.75
2022-11-15T09:30:38.128Z,1479.38
2022-11-15T09:31:38.110Z,1231.88
2022-11-15T09:32:39.578Z,1040.62
2022-11-15T09:33:38.117Z,1186.88
2022-11-15T09:34:38.086Z,1338.75
2022-11-15T09:35:38.056Z,1231.88
2022-11-15T09:36:38.037Z,1074.38
2022-11-15T09:37:38.043Z,1046.25
2022-11-15T09:38:38.033Z,1119.38
2022-11-15T09:39:38.018Z,1321.88
2022-11-15T09:40:37.995Z,1220.62
2022-11-15T09:41:38.034Z,815.62
2022-11-15T09:42:37.984Z,410.62
2022-11-15T09:43:37.957Z,241.88
2022-11-15T09:44:37.959Z,230.62
2022-11-15T09:45:37.927Z,225.00
2022-11-15T09:46:37.917Z,219.38
2022-11-15T09:47:37.957Z,213.75
2022-11-15T09:48:37.897Z,213.75
2022-11-15T09:49:37.877Z,213.75
2022-11-15T09:50:37.856Z,208.12
2022-11-15T09:51:37.852Z,208.12
2022-11-15T09:52:37.868Z,208.12
2022-11-15T09:54:23.835Z,208.12
2022-11-15T09:54:55.508Z,208.12
2022-11-15T09:55:38.810Z,208.12
2022-11-15T09:56:37.781Z,208.12
2022-11-15T09:57:37.776Z,208.12
2022-11-15T09:58:37.770Z,208.12
2022-11-15T09:59:37.737Z,208.12
2022-11-15T10:00:47.006Z,208.12
2022-11-15T10:01:38.741Z,208.12
2022-11-15T10:02:37.699Z,208.12
2022-11-15T10:03:37.726Z,208.12
2022-11-15T10:04:37.681Z,208.12
2022-11-15T10:05:37.649Z,202.50
2022-11-15T10:06:37.648Z,202.50
2022-11-15T10:07:37.667Z,202.50
2022-11-15T10:08:37.630Z,163.12
2022-11-15T10:09:37.615Z,202.50
2022-11-15T10:10:37.593Z,202.50
2022-11-15T10:11:38.899Z,196.88
2022-11-15T10:12:37.567Z,196.88
2022-11-15T10:13:37.589Z,202.50
2022-11-15T10:14:37.541Z,196.88
2022-11-15T10:15:37.526Z,180.00
2022-11-15T10:16:37.519Z,129.38
2022-11-15T10:17:37.488Z,106.88
2022-11-15T10:18:37.498Z,106.88
2022-11-15T10:19:37.468Z,112.50
2022-11-15T10:20:37.457Z,129.38
2022-11-15T10:21:37.439Z,157.50
2022-11-15T10:22:37.439Z,123.75
2022-11-15T10:23:37.428Z,180.00
2022-11-15T10:24:37.399Z,196.88
2022-11-15T10:25:37.390Z,196.88
2022-11-15T10:26:37.378Z,157.50
2022-11-15T10:27:37.368Z,118.12
2022-11-15T10:28:37.382Z,118.12
2022-11-15T10:29:37.337Z,129.38
2022-11-15T10:30:52.613Z,140.62
2022-11-15T10:31:37.327Z,196.88
2022-11-15T10:32:37.285Z,196.88
2022-11-15T10:33:37.376Z,196.88
2022-11-15T10:34:37.264Z,196.88
2022-11-15T10:35:37.255Z,196.88
2022-11-15T10:36:37.243Z,202.50
2022-11-15T10:37:37.272Z,163.12
2022-11-15T10:38:37.224Z,196.88
2022-11-15T10:39:37.192Z,196.88
2022-11-15T10:40:37.187Z,196.88
2022-11-15T10:41:37.177Z,196.88
2022-11-15T10:42:37.153Z,191.25
2022-11-15T10:43:37.154Z,191.25
2022-11-15T10:44:37.147Z,191.25
2022-11-15T10:45:37.124Z,185.62
2022-11-15T10:46:46.659Z,185.62
2022-11-15T10:47:39.902Z,180.00
2022-11-15T10:48:37.083Z,180.00
2022-11-15T10:49:37.077Z,180.00
2022-11-15T10:50:37.049Z,151.88
2022-11-15T10:51:37.045Z,168.75
2022-11-15T10:52:37.107Z,146.25
2022-11-15T10:53:37.088Z,140.62
2022-11-15T10:54:37.003Z,163.12
2022-11-15T10:55:37.019Z,157.50
2022-11-15T10:56:36.976Z,163.12
2022-11-15T10:57:36.948Z,157.50
2022-11-15T10:58:36.955Z,157.50
2022-11-15T10:59:39.208Z,157.50
2022-11-15T11:00:36.924Z,157.50
2022-11-15T11:01:36.930Z,157.50
2022-11-15T11:02:36.905Z,151.88
2022-11-15T11:03:36.886Z,151.88
2022-11-15T11:04:36.884Z,151.88
2022-11-15T11:05:41.710Z,151.88
2022-11-15T11:06:37.835Z,151.88
2022-11-15T11:07:36.907Z,146.25
2022-11-15T11:08:36.820Z,146.25
2022-11-15T11:09:36.821Z,146.25
2022-11-15T11:10:51.211Z,146.25
2022-11-15T11:11:37.774Z,146.25
2022-11-15T11:12:36.764Z,140.62
2022-11-15T11:13:36.771Z,140.62
2022-11-15T11:14:36.745Z,140.62
2022-11-15T11:15:36.715Z,140.62
2022-11-15T11:16:39.198Z,140.62
2022-11-15T11:17:36.684Z,140.62
2022-11-15T11:18:36.686Z,140.62
2022-11-15T11:19:36.655Z,140.62
2022-11-15T11:20:36.751Z,140.62
2022-11-15T11:21:39.945Z,140.62
2022-11-15T11:22:36.626Z,140.62
2022-11-15T11:23:36.605Z,140.62
2022-11-15T11:24:36.607Z,140.62
2022-11-15T11:25:36.586Z,140.62
2022-11-15T11:26:36.647Z,140.62
2022-11-15T11:27:36.554Z,140.62
2022-11-15T11:28:36.540Z,140.62
2022-11-15T11:29:36.526Z,140.62
2022-11-15T11:30:36.515Z,140.62
2022-11-15T11:31:36.504Z,140.62
2022-11-15T11:32:36.502Z,135.00
2022-11-15T11:33:36.503Z,135.00
2022-11-15T11:34:36.453Z,135.00
2022-11-15T11:35:36.456Z,135.00
2022-11-15T11:36:36.435Z,135.00
2022-11-15T11:37:36.425Z,135.00
2022-11-15T11:38:36.404Z,135.00
2022-11-15T11:39:36.415Z,135.00
2022-11-15T11:40:36.396Z,129.38
2022-11-15T11:41:36.366Z,129.38
2022-11-15T11:42:36.375Z,129.38
2022-11-15T11:43:36.324Z,129.38
2022-11-15T11:44:36.334Z,129.38
2022-11-15T11:45:36.325Z,129.38
2022-11-15T11:46:36.296Z,129.38
2022-11-15T11:47:36.281Z,123.75
2022-11-15T11:48:36.266Z,123.75
2022-11-15T11:49:36.379Z,123.75
2022-11-15T11:50:36.357Z,123.75
2022-11-15T11:51:36.252Z,123.75
2022-11-15T11:52:36.229Z,123.75
2022-11-15T11:53:36.193Z,123.75
2022-11-15T11:54:36.180Z,118.12
2022-11-15T11:55:36.207Z,118.12
2022-11-15T11:56:36.167Z,118.12
2022-11-15T11:57:36.144Z,118.12
2022-11-15T11:58:36.187Z,118.12
2022-11-15T11:59:36.118Z,118.12
2022-11-15T12:00:36.231Z,112.50
2022-11-15T12:01:36.127Z,112.50
2022-11-15T12:02:36.172Z,112.50
2022-11-15T12:03:36.064Z,112.50
2022-11-15T12:04:36.070Z,112.50
2022-11-15T12:05:36.053Z,106.88
2022-11-15T12:06:36.029Z,106.88
2022-11-15T12:07:36.040Z,106.88
2022-11-15T12:08:36.306Z,106.88
2022-11-15T12:09:35.975Z,106.88
2022-11-15T12:10:35.998Z,106.88
2022-11-15T12:11:35.944Z,101.25
2022-11-15T12:12:35.953Z,101.25
2022-11-15T12:13:35.941Z,101.25
2022-11-15T12:14:36.048Z,101.25
2022-11-15T12:15:35.925Z,101.25
2022-11-15T12:16:35.906Z,101.25
2022-11-15T12:17:35.876Z,101.25
2022-11-15T12:18:35.877Z,101.25
2022-11-15T12:19:35.850Z,101.25
2022-11-15T12:20:35.861Z,101.25
2022-11-15T12:21:35.840Z,95.62
2022-11-15T12:22:35.816Z,95.62
2022-11-15T12:23:35.826Z,95.62
2022-11-15T12:24:35.805Z,95.62
2022-11-15T12:25:35.784Z,95.62
2022-11-15T12:26:35.764Z,95.62
2022-11-15T12:27:35.745Z,90.00
2022-11-15T12:28:35.942Z,90.00
2022-11-15T12:29:35.710Z,90.00
2022-11-15T12:30:35.717Z,90.00
2022-11-15T12:31:35.706Z,90.00
2022-11-15T12:32:35.676Z,90.00
2022-11-15T12:33:35.667Z,84.38
2022-11-15T12:34:35.710Z,84.38
2022-11-15T12:35:35.646Z,84.38
2022-11-15T12:36:35.626Z,84.38
2022-11-15T12:37:35.620Z,84.38
2022-11-15T12:38:35.632Z,84.38
2022-11-15T12:39:35.613Z,84.38
2022-11-15T12:40:35.603Z,84.38
2022-11-15T12:41:35.553Z,84.38
2022-11-15T12:42:35.553Z,90.00
2022-11-15T12:43:35.545Z,90.00
2022-11-15T12:44:35.529Z,90.00
2022-11-15T12:45:35.536Z,90.00
2022-11-15T12:46:35.534Z,95.62
2022-11-15T12:47:35.470Z,90.00
2022-11-15T12:48:35.483Z,90.00
2022-11-15T12:49:35.447Z,90.00
2022-11-15T12:50:35.456Z,90.00
2022-11-15T12:51:35.453Z,95.62
2022-11-15T12:52:35.436Z,95.62
2022-11-15T12:53:35.410Z,95.62
2022-11-15T12:54:35.387Z,95.62
2022-11-15T12:55:35.375Z,95.62
2022-11-15T12:56:35.397Z,95.62
2022-11-15T12:57:35.334Z,95.62
2022-11-15T12:58:35.437Z,95.62
2022-11-15T12:59:35.324Z,95.62
2022-11-15T13:00:35.337Z,95.62
2022-11-15T13:01:35.373Z,95.62
2022-11-15T13:02:35.275Z,95.62
2022-11-15T13:03:35.272Z,90.00
2022-11-15T13:04:35.255Z,90.00
2022-11-15T13:05:35.267Z,90.00
2022-11-15T13:06:35.245Z,90.00
2022-11-15T13:07:35.254Z,90.00
2022-11-15T13:08:35.214Z,90.00
2022-11-15T13:09:35.178Z,90.00
2022-11-15T13:10:35.184Z,95.62
2022-11-15T13:11:35.198Z,95.62
2022-11-15T13:12:35.147Z,95.62
2022-11-15T13:13:35.143Z,95.62
2022-11-15T13:14:35.132Z,95.62
2022-11-15T13:15:41.130Z,95.62
2022-11-15T13:16:36.133Z,95.62
2022-11-15T13:17:35.073Z,95.62
2022-11-15T13:18:35.519Z,95.62
2022-11-15T13:19:35.059Z,95.62
2022-11-15T13:20:35.055Z,95.62
2022-11-15T13:21:35.039Z,101.25
2022-11-15T13:22:35.016Z,95.62
2022-11-15T13:23:34.988Z,95.62
2022-11-15T13:24:34.998Z,95.62
2022-11-15T13:25:34.979Z,101.25
2022-11-15T13:26:35.004Z,95.62
2022-11-15T13:27:34.938Z,95.62
2022-11-15T13:28:35.209Z,90.00
2022-11-15T13:29:34.924Z,90.00
2022-11-15T13:30:34.908Z,90.00
2022-11-15T13:31:34.900Z,90.00
2022-11-15T13:32:34.896Z,90.00
2022-11-15T13:33:36.450Z,90.00
2022-11-15T13:34:52.148Z,90.00
2022-11-15T13:35:35.880Z,90.00
2022-11-15T13:36:34.837Z,84.38
2022-11-15T13:37:34.834Z,84.38
2022-11-15T13:38:35.104Z,84.38
2022-11-15T13:39:34.787Z,84.38
2022-11-15T13:40:34.777Z,90.00
2022-11-15T13:41:34.756Z,84.38
2022-11-15T13:42:34.746Z,84.38
2022-11-15T13:43:34.726Z,84.38
2022-11-15T13:44:34.722Z,84.38
2022-11-15T13:45:34.704Z,84.38
2022-11-15T13:46:34.711Z,84.38
2022-11-15T13:47:34.673Z,84.38
2022-11-15T13:48:34.887Z,84.38
2022-11-15T13:49:34.651Z,78.75
2022-11-15T13:50:34.666Z,78.75
2022-11-15T13:51:34.635Z,78.75
2022-11-15T13:52:34.607Z,78.75
2022-11-15T13:53:34.610Z,78.75
2022-11-15T13:54:34.577Z,73.12
2022-11-15T13:55:34.571Z,73.12
2022-11-15T13:56:34.573Z,73.12
2022-11-15T13:57:34.536Z,78.75
2022-11-15T13:58:34.659Z,78.75
2022-11-15T13:59:34.517Z,73.12
2022-11-15T14:00:34.514Z,73.12
2022-11-15T14:01:34.530Z,73.12
2022-11-15T14:02:34.481Z,73.12
2022-11-15T14:03:34.509Z,67.50
2022-11-15T14:04:34.448Z,67.50
2022-11-15T14:05:34.427Z,67.50
2022-11-15T14:06:34.438Z,61.88
2022-11-15T14:07:34.445Z,61.88
2022-11-15T14:08:34.741Z,61.88
2022-11-15T14:09:34.379Z,61.88
2022-11-15T14:10:34.377Z,61.88
2022-11-15T14:11:34.366Z,61.88
2022-11-15T14:12:34.352Z,56.25
2022-11-15T14:13:34.339Z,56.25
2022-11-15T14:14:34.317Z,50.62
2022-11-15T14:15:34.312Z,50.62
2022-11-15T14:16:34.301Z,50.62
2022-11-15T14:17:34.284Z,50.62
2022-11-15T14:18:34.537Z,45.00
2022-11-15T14:19:34.251Z,45.00
2022-11-15T14:20:34.240Z,45.00
2022-11-15T14:22:22.935Z,45.00
2022-11-15T14:22:34.235Z,45.00
2022-11-15T14:23:34.202Z,45.00
2022-11-15T14:24:34.172Z,45.00
2022-11-15T14:25:34.164Z,45.00
2022-11-15T14:26:34.176Z,45.00
2022-11-15T14:27:34.140Z,45.00
2022-11-15T14:28:34.705Z,45.00
2022-11-15T14:29:34.104Z,45.00
2022-11-15T14:30:34.103Z,45.00
2022-11-15T14:31:34.105Z,39.38
2022-11-15T14:32:34.073Z,39.38
2022-11-15T14:33:34.106Z,39.38
2022-11-15T14:34:34.064Z,39.38
2022-11-15T14:35:34.047Z,39.38
2022-11-15T14:36:34.034Z,33.75
2022-11-15T14:37:34.028Z,33.75
2022-11-15T14:38:34.388Z,33.75
2022-11-15T14:39:33.993Z,33.75
2022-11-15T14:40:33.962Z,33.75
2022-11-15T14:41:33.964Z,33.75
2022-11-15T14:42:33.965Z,33.75
2022-11-15T14:43:33.928Z,33.75
2022-11-15T14:44:33.952Z,28.12
2022-11-15T14:45:33.912Z,28.12
2022-11-15T14:46:33.891Z,28.12
2022-11-15T14:47:33.883Z,28.12
2022-11-15T14:48:34.236Z,28.12
2022-11-15T14:49:33.852Z,22.50
2022-11-15T14:50:33.842Z,22.50
2022-11-15T14:51:33.834Z,22.50
2022-11-15T14:52:33.833Z,22.50
2022-11-15T14:53:33.805Z,22.50
2022-11-15T14:54:33.777Z,22.50
2022-11-15T14:55:33.777Z,16.88
2022-11-15T14:56:33.744Z,16.88
2022-11-15T14:57:33.761Z,16.88
2022-11-15T14:58:34.014Z,16.88
2022-11-15T14:59:33.729Z,16.88
2022-11-15T15:00:35.286Z,16.88
2022-11-15T15:01:33.687Z,11.25
2022-11-15T15:02:33.697Z,11.25
2022-11-15T15:03:33.658Z,11.25
2022-11-15T15:04:33.653Z,11.25
2022-11-15T15:05:33.646Z,11.25
2022-11-15T15:06:33.693Z,11.25
2022-11-15T15:07:33.739Z,11.25
2022-11-15T15:08:33.949Z,11.25
2022-11-15T15:09:33.581Z,5.62
2022-11-15T15:10:40.133Z,5.62
2022-11-15T15:11:34.552Z,5.62
2022-11-15T15:12:33.552Z,5.62
2022-11-15T15:13:33.522Z,5.62
2022-11-15T15:14:33.544Z,5.62
2022-11-15T15:15:33.503Z,5.62
2022-11-15T15:16:33.496Z,5.62
2022-11-15T15:17:33.515Z,5.62
2022-11-15T15:18:33.726Z,5.62
2022-11-15T15:19:33.434Z,5.62
2022-11-15T15:20:33.527Z,0.00
2022-11-15T15:21:37.202Z,0.00
2022-11-15T15:22:33.461Z,0.00
2022-11-15T15:23:33.398Z,0.00
2022-11-15T15:24:33.372Z,0.00
2022-11-15T15:25:33.362Z,0.00
2022-11-15T15:26:33.345Z,0.00
2022-11-15T15:27:33.353Z,0.00
2022-11-15T15:28:35.076Z,0.00
2022-11-15T15:29:33.325Z,0.00
2022-11-15T15:30:33.302Z,0.00
2022-11-15T15:31:33.295Z,0.00
2022-11-15T15:32:33.283Z,0.00
2022-11-15T15:33:33.266Z,0.00
2022-11-15T15:34:33.241Z,0.00
2022-11-15T15:35:33.232Z,0.00
2022-11-15T15:36:33.245Z,0.00
2022-11-15T15:37:33.243Z,0.00
2022-11-15T15:38:33.562Z,0.00
2022-11-15T15:39:33.203Z,0.00
2022-11-15T15:40:33.203Z,0.00
2022-11-15T15:41:33.154Z,0.00
2022-11-15T15:42:33.163Z,0.00
2022-11-15T15:43:33.122Z,0.00
2022-11-15T15:44:33.120Z,0.00
2022-11-15T15:45:33.114Z,0.00
2022-11-15T15:46:33.101Z,0.00
2022-11-15T15:47:33.076Z,0.00
2022-11-15T15:48:33.276Z,0.00
2022-11-15T15:49:33.040Z,0.00
2022-11-15T15:50:33.029Z,0.00
2022-11-15T15:51:33.011Z,0.00
2022-11-15T15:52:33.048Z,0.00
2022-11-15T15:53:33.019Z,0.00
2022-11-15T15:54:32.979Z,0.00
2022-11-15T15:55:32.962Z,0.00
2022-11-15T15:56:32.952Z,0.00
2022-11-15T15:57:32.941Z,0.00
2022-11-15T15:58:33.206Z,0.00
2022-11-15T15:59:32.900Z,0.00
2022-11-15T16:00:32.901Z,0.00
2022-11-15T16:01:32.935Z,0.00
2022-11-15T16:02:36.319Z,0.00
2022-11-15T16:03:33.851Z,0.00
2022-11-15T16:04:32.850Z,0.00
2022-11-15T16:05:32.830Z,0.00
2022-11-15T16:06:32.811Z,0.00
2022-11-15T16:07:32.850Z,0.00
2022-11-15T16:09:08.183Z,0.00
2022-11-15T16:09:33.771Z,0.00
2022-11-15T16:10:32.748Z,0.00
2022-11-15T16:11:32.739Z,0.00
2022-11-15T16:12:32.731Z,0.00
2022-11-15T16:13:32.728Z,0.00
2022-11-15T16:14:32.719Z,0.00
2022-11-15T16:15:32.705Z,0.00
2022-11-15T16:16:32.686Z,0.00
2022-11-15T16:17:34.271Z,0.00
2022-11-15T16:18:33.046Z,0.00
2022-11-15T16:20:18.850Z,0.00
2022-11-15T16:20:32.632Z,0.00
2022-11-15T16:21:34.320Z,0.00
2022-11-15T16:22:32.591Z,0.00
2022-11-15T16:23:32.590Z,0.00
2022-11-15T16:24:32.574Z,0.00
2022-11-15T16:25:32.552Z,0.00
2022-11-15T16:26:32.569Z,0.00
2022-11-15T16:27:32.521Z,0.00
2022-11-15T16:28:33.198Z,0.00
2022-11-15T16:29:32.500Z,0.00
2022-11-15T16:30:32.492Z,0.00
2022-11-15T16:31:32.517Z,0.00
2022-11-15T16:32:32.505Z,0.00
2022-11-15T16:33:32.859Z,0.00
2022-11-15T16:34:37.285Z,0.00
2022-11-15T16:35:33.421Z,0.00
2022-11-15T16:36:32.431Z,0.00
2022-11-15T16:37:32.393Z,0.00
2022-11-15T16:38:32.702Z,0.00
2022-11-15T16:39:32.370Z,0.00
2022-11-15T16:40:32.359Z,0.00
2022-11-15T16:41:32.359Z,0.00
2022-11-15T16:42:32.332Z,0.00
2022-11-15T16:43:32.335Z,0.00
2022-11-15T16:44:32.307Z,0.00
2022-11-15T16:45:32.297Z,0.00
2022-11-15T16:46:32.270Z,0.00
2022-11-15T16:47:32.268Z,0.00
2022-11-15T16:48:32.405Z,0.00
2022-11-15T16:49:32.254Z,0.00
2022-11-15T16:50:32.234Z,0.00
2022-11-15T16:51:32.218Z,0.00
2022-11-15T16:52:32.198Z,0.00
2022-11-15T16:53:32.231Z,0.00
2022-11-15T16:54:32.173Z,0.00
2022-11-15T16:55:32.148Z,0.00
2022-11-15T16:56:32.174Z,0.00
2022-11-15T16:57:32.147Z,0.00
2022-11-15T16:58:32.444Z,0.00
2022-11-15T16:59:37.082Z,0.00
2022-11-15T17:00:33.117Z,0.00
2022-11-15T17:01:32.183Z,0.00
2022-11-15T17:02:32.070Z,0.00
2022-11-15T17:03:32.060Z,0.00
2022-11-15T17:04:32.163Z,0.00
2022-11-15T17:05:32.052Z,0.00
2022-11-15T17:06:32.010Z,0.00
2022-11-15T17:07:32.058Z,0.00
2022-11-15T17:08:32.263Z,0.00
2022-11-15T17:09:31.967Z,0.00
2022-11-15T17:11:31.122Z,0.00
2022-11-15T17:12:31.124Z,0.00
2022-11-15T17:13:31.102Z,0.00
2022-11-15T17:14:31.072Z,0.00
2022-11-15T17:15:31.066Z,0.00
2022-11-15T17:16:31.085Z,0.00
2022-11-15T17:17:31.042Z,0.00
2022-11-15T17:18:31.386Z,0.00
2022-11-15T17:19:31.051Z,0.00
2022-11-15T17:20:31.008Z,0.00
2022-11-15T17:21:33.512Z,0.00
2022-11-15T17:22:30.974Z,0.00
2022-11-15T17:23:30.986Z,0.00
2022-11-15T17:24:30.963Z,0.00
2022-11-15T17:25:30.960Z,0.00
2022-11-15T17:26:33.963Z,0.00
2022-11-15T17:27:30.928Z,0.00
2022-11-15T17:28:31.219Z,0.00
2022-11-15T17:29:30.905Z,0.00
2022-11-15T17:30:30.893Z,0.00
2022-11-15T17:31:30.992Z,0.00
2022-11-15T17:32:30.842Z,0.00
2022-11-15T17:33:30.859Z,0.00
2022-11-15T17:34:30.829Z,0.00
2022-11-15T17:35:30.822Z,0.00
2022-11-15T17:36:30.799Z,0.00
2022-11-15T17:37:30.792Z,0.00
2022-11-15T17:38:31.092Z,0.00
2022-11-15T17:39:30.777Z,0.00
2022-11-15T17:40:30.739Z,0.00
2022-11-15T17:41:30.778Z,0.00
2022-11-15T17:42:30.729Z,0.00
2022-11-15T17:43:30.710Z,0.00
2022-11-15T17:44:30.716Z,0.00
2022-11-15T17:45:30.680Z,0.00
2022-11-15T17:46:31.469Z,0.00
2022-11-15T17:47:30.649Z,0.00
2022-11-15T17:48:30.918Z,0.00
2022-11-15T17:49:30.672Z,0.00
2022-11-15T17:50:30.614Z,0.00
2022-11-15T17:51:30.598Z,0.00
2022-11-15T17:52:30.576Z,0.00
2022-11-15T17:53:30.578Z,0.00
2022-11-15T17:54:30.598Z,0.00
2022-11-15T17:55:30.540Z,0.00
2022-11-15T17:56:30.528Z,0.00
2022-11-15T17:57:30.515Z,0.00
2022-11-15T17:58:30.957Z,0.00
2022-11-15T17:59:30.533Z,0.00
2022-11-15T18:00:30.481Z,0.00
2022-11-15T18:01:30.533Z,0.00
2022-11-15T18:02:30.446Z,0.00
2022-11-15T18:03:30.796Z,0.00
2022-11-15T18:04:30.434Z,0.00
2022-11-15T18:05:30.468Z,0.00
2022-11-15T18:06:30.410Z,0.00
